Time;durP1;ratioP1;P1;durP2;ratioP2;P2;SDS_P1;SDS_P2;PMS_P1;PMS_P2;Temp;Humidity;BMP_temperature;BMP_pressure;BME280_temperature;BME280_humidity;BME280_pressure;Samples;Min_cycle;Max_cycle;Signal;HPM_P1;HPM_P2
2021/05/16 00:02:23;;;;;;;7.53;2.08;;;16.70;66.20;;;;;;6315703;28;20131;-83
2021/05/16 00:05:29;;;;;;;5.10;2.78;;;16.70;66.30;;;;;;6297006;28;20579;-82
2021/05/16 00:08:32;;;;;;;5.90;2.90;;;16.70;66.40;;;;;;6319330;28;20033;-83
2021/05/16 00:11:33;;;;;;;5.95;2.63;;;16.70;66.50;;;;;;6299850;28;20488;-83
2021/05/16 00:14:35;;;;;;;8.98;2.72;;;16.70;66.50;;;;;;6283003;28;20032;-82
2021/05/16 00:17:36;;;;;;;9.10;2.35;;;16.70;66.50;;;;;;6306996;28;20040;-85
2021/05/16 00:20:38;;;;;;;3.10;2.08;;;16.70;66.60;;;;;;6295889;28;20041;-83
2021/05/16 00:23:39;;;;;;;5.50;1.80;;;16.70;66.70;;;;;;6303811;28;20044;-82
2021/05/16 00:26:40;;;;;;;4.60;2.08;;;16.70;66.70;;;;;;6328432;28;20055;-83
2021/05/16 00:29:41;;;;;;;6.57;2.47;;;16.70;66.60;;;;;;6309776;28;20063;-82
2021/05/16 00:32:43;;;;;;;4.50;2.22;;;16.70;66.70;;;;;;6310247;28;20093;-83
2021/05/16 00:35:44;;;;;;;5.00;1.98;;;16.70;66.70;;;;;;6311079;28;20043;-83
2021/05/16 00:38:45;;;;;;;4.22;2.92;;;16.70;66.80;;;;;;6310406;28;20056;-83
2021/05/16 00:41:46;;;;;;;4.88;2.17;;;16.70;66.80;;;;;;6327834;28;20457;-84
2021/05/16 00:45:08;;;;;;;6.60;2.97;;;16.70;66.70;;;;;;6293249;28;20046;-82
2021/05/16 00:48:10;;;;;;;3.72;2.30;;;16.70;66.70;;;;;;6324501;28;20043;-83
2021/05/16 00:51:12;;;;;;;9.48;2.38;;;16.70;66.80;;;;;;6293242;28;20369;-83
2021/05/16 00:54:13;;;;;;;3.83;2.13;;;16.70;66.70;;;;;;6283121;28;20048;-82
2021/05/16 00:57:14;;;;;;;13.13;2.20;;;16.70;66.70;;;;;;6246776;28;20040;-84
2021/05/16 01:00:18;;;;;;;10.48;2.25;;;16.70;66.60;;;;;;6266367;28;20028;-82
2021/05/16 01:03:21;;;;;;;4.20;2.03;;;16.70;66.80;;;;;;6297890;28;20033;-83
2021/05/16 01:06:22;;;;;;;4.65;2.50;;;16.70;66.90;;;;;;6299394;28;20473;-83
2021/05/16 01:09:25;;;;;;;4.25;2.53;;;16.60;67.00;;;;;;6271813;28;20135;-82
2021/05/16 01:12:32;;;;;;;10.00;2.83;;;16.70;67.10;;;;;;6308465;28;20036;-83
2021/05/16 01:15:36;;;;;;;4.60;2.87;;;16.70;67.20;;;;;;6302290;28;20036;-84
2021/05/16 01:18:37;;;;;;;3.45;2.22;;;16.70;67.30;;;;;;6304299;28;20487;-83
2021/05/16 01:21:41;;;;;;;5.25;3.03;;;16.70;67.30;;;;;;6306483;28;20029;-83
2021/05/16 01:24:45;;;;;;;3.40;1.75;;;16.70;67.40;;;;;;6288808;28;20041;-82
2021/05/16 01:27:47;;;;;;;2.45;1.70;;;16.70;67.40;;;;;;6306916;28;20043;-82
2021/05/16 01:30:51;;;;;;;2.17;1.20;;;16.70;67.30;;;;;;6324445;28;20063;-83
2021/05/16 01:33:52;;;;;;;2.22;1.58;;;16.70;67.20;;;;;;6306313;28;20058;-82
2021/05/16 01:36:54;;;;;;;2.53;1.65;;;16.70;67.10;;;;;;6289437;28;20338;-82
2021/05/16 01:39:56;;;;;;;5.22;2.70;;;16.70;67.00;;;;;;6322791;28;20051;-83
2021/05/16 01:42:58;;;;;;;3.75;2.53;;;16.70;67.00;;;;;;6323194;28;20345;-84
2021/05/16 01:45:59;;;;;;;8.38;2.70;;;16.70;67.10;;;;;;6297700;28;20029;-83
2021/05/16 01:49:02;;;;;;;6.10;2.35;;;16.70;67.10;;;;;;6329505;28;20040;-82
2021/05/16 01:52:04;;;;;;;5.28;2.83;;;16.70;67.10;;;;;;6311180;28;20109;-84
2021/05/16 01:55:05;;;;;;;3.92;2.38;;;16.70;67.20;;;;;;6324440;28;20047;-84
2021/05/16 01:58:06;;;;;;;3.17;1.98;;;16.70;67.20;;;;;;6322416;28;20093;-83
2021/05/16 02:01:09;;;;;;;4.28;2.00;;;16.70;67.20;;;;;;6321196;28;20109;-82
2021/05/16 02:04:18;;;;;;;2.55;1.60;;;16.70;67.10;;;;;;6304404;28;20036;-84
2021/05/16 02:07:20;;;;;;;2.55;1.17;;;16.70;66.90;;;;;;6321721;28;20508;-83
2021/05/16 02:10:23;;;;;;;1.58;0.90;;;16.70;66.60;;;;;;6305605;28;20040;-83
2021/05/16 02:13:28;;;;;;;1.77;1.27;;;16.70;66.30;;;;;;6306196;28;20048;-83
2021/05/16 02:16:45;;;;;;;1.77;1.17;;;16.80;66.10;;;;;;6316016;28;20043;-83
2021/05/16 02:19:46;;;;;;;1.25;0.88;;;16.80;65.70;;;;;;6322580;28;20377;-83
2021/05/16 02:22:48;;;;;;;1.77;0.90;;;16.80;65.40;;;;;;6294021;28;20063;-83
2021/05/16 02:25:52;;;;;;;1.52;0.70;;;16.80;65.20;;;;;;6284429;28;20061;-82
2021/05/16 02:28:58;;;;;;;2.33;1.10;;;16.90;65.00;;;;;;6300335;28;20158;-83
2021/05/16 02:32:00;;;;;;;1.25;0.82;;;16.90;64.90;;;;;;6307411;28;20040;-82
2021/05/16 02:35:04;;;;;;;1.63;1.00;;;16.90;64.40;;;;;;6287249;28;20116;-84
2021/05/16 02:38:20;;;;;;;1.50;0.88;;;16.90;64.20;;;;;;6305810;28;20091;-83
2021/05/16 02:41:23;;;;;;;1.17;0.90;;;17.00;64.10;;;;;;6320214;28;20111;-82
2021/05/16 02:44:24;;;;;;;4.20;1.45;;;17.00;64.10;;;;;;6302170;28;20105;-84
2021/05/16 02:47:26;;;;;;;4.00;0.80;;;17.00;64.10;;;;;;6320246;28;20040;-83
2021/05/16 02:50:28;;;;;;;2.08;0.95;;;17.00;64.10;;;;;;6312896;28;20044;-83
2021/05/16 02:53:36;;;;;;;1.10;0.70;;;17.00;63.90;;;;;;6293969;28;20032;-83
2021/05/16 02:56:38;;;;;;;2.00;0.80;;;16.90;64.00;;;;;;6273489;28;20043;-82
2021/05/16 02:59:40;;;;;;;1.95;1.00;;;16.90;64.30;;;;;;6304623;28;20028;-83
2021/05/16 03:02:42;;;;;;;1.65;1.17;;;16.90;64.50;;;;;;6305085;28;20032;-83
2021/05/16 03:05:44;;;;;;;1.35;0.98;;;16.90;64.50;;;;;;6303010;28;20536;-83
2021/05/16 03:08:46;;;;;;;3.47;0.80;;;16.90;64.50;;;;;;6320783;28;20181;-83
2021/05/16 03:11:48;;;;;;;2.45;1.17;;;16.80;64.70;;;;;;6308509;28;20492;-82
2021/05/16 03:14:50;;;;;;;5.28;0.70;;;16.80;64.90;;;;;;6299674;28;20035;-83
2021/05/16 03:17:51;;;;;;;1.33;0.80;;;16.80;65.20;;;;;;6300192;28;20080;-84
2021/05/16 03:20:53;;;;;;;1.80;1.23;;;16.70;65.30;;;;;;6308430;28;20067;-82
2021/05/16 03:23:55;;;;;;;3.40;1.77;;;16.70;65.70;;;;;;6279795;28;20056;-82
2021/05/16 03:26:57;;;;;;;3.47;1.70;;;16.60;65.90;;;;;;6292050;28;20039;-81
2021/05/16 03:29:59;;;;;;;5.55;1.75;;;16.60;66.20;;;;;;6310553;28;20033;-83
2021/05/16 03:33:02;;;;;;;2.50;1.70;;;16.50;66.40;;;;;;6310959;28;20453;-84
2021/05/16 03:36:03;;;;;;;5.35;1.83;;;16.50;66.40;;;;;;6284554;28;20335;-83
2021/05/16 03:39:05;;;;;;;2.83;1.63;;;16.50;66.60;;;;;;6289005;28;20131;-82
2021/05/16 03:42:07;;;;;;;3.45;1.73;;;16.50;66.60;;;;;;6288430;28;20036;-83
2021/05/16 03:45:11;;;;;;;3.28;1.30;;;16.50;66.60;;;;;;6301698;28;20088;-83
2021/05/16 03:48:13;;;;;;;4.65;1.30;;;16.60;67.00;;;;;;6312464;28;20466;-82
2021/05/16 03:51:14;;;;;;;1.35;1.02;;;16.50;67.00;;;;;;6325691;28;20036;-83
2021/05/16 03:54:15;;;;;;;1.77;1.50;;;16.50;67.20;;;;;;6307819;28;20111;-84
2021/05/16 03:57:17;;;;;;;5.63;1.98;;;16.50;67.30;;;;;;6299980;28;20043;-83
2021/05/16 04:00:19;;;;;;;1.90;1.55;;;16.50;67.50;;;;;;6326973;28;20055;-82
2021/05/16 04:03:20;;;;;;;4.65;2.25;;;16.40;67.60;;;;;;6319036;28;20047;-82
2021/05/16 04:06:24;;;;;;;4.47;1.60;;;16.40;67.90;;;;;;6300889;28;20029;-83
2021/05/16 04:09:25;;;;;;;4.10;2.03;;;16.30;68.10;;;;;;6284134;28;20485;-83
2021/05/16 04:12:27;;;;;;;4.95;1.98;;;16.30;68.30;;;;;;6285561;28;20131;-83
2021/05/16 04:15:28;;;;;;;2.05;1.42;;;16.30;68.40;;;;;;6294499;28;20049;-83
2021/05/16 04:18:29;;;;;;;2.00;1.70;;;16.20;68.50;;;;;;6286926;28;20116;-84
2021/05/16 04:21:31;;;;;;;2.72;1.67;;;16.20;68.50;;;;;;6322682;28;20036;-82
2021/05/16 04:24:32;;;;;;;2.83;1.70;;;16.30;68.60;;;;;;6313148;28;20075;-82
2021/05/16 04:27:34;;;;;;;2.80;1.70;;;16.30;68.60;;;;;;6293642;28;20040;-82
2021/05/16 04:30:37;;;;;;;3.40;2.10;;;16.30;68.60;;;;;;6311403;28;20036;-83
2021/05/16 04:33:38;;;;;;;3.28;2.17;;;16.20;68.50;;;;;;6287905;28;20040;-83
2021/05/16 04:36:39;;;;;;;3.08;2.10;;;16.30;68.60;;;;;;6288214;28;20032;-83
2021/05/16 04:39:40;;;;;;;4.40;2.33;;;16.30;68.60;;;;;;6296084;28;20589;-83
2021/05/16 04:42:41;;;;;;;6.70;2.65;;;16.30;68.50;;;;;;6298593;28;20036;-85
2021/05/16 04:45:43;;;;;;;4.63;3.03;;;16.30;68.50;;;;;;6317722;28;20059;-83
2021/05/16 04:48:44;;;;;;;6.30;2.53;;;16.40;68.60;;;;;;6321106;28;20380;-83
2021/05/16 04:51:45;;;;;;;5.65;2.80;;;16.40;68.60;;;;;;6287881;28;20044;-82
2021/05/16 04:54:47;;;;;;;4.75;2.67;;;16.40;68.60;;;;;;6309276;28;20500;-82
2021/05/16 04:57:48;;;;;;;3.33;2.70;;;16.40;68.60;;;;;;6283413;28;20043;-83
2021/05/16 05:00:50;;;;;;;3.47;2.42;;;16.40;68.60;;;;;;6293962;28;20094;-83
2021/05/16 05:03:51;;;;;;;4.35;2.92;;;16.40;68.50;;;;;;6299924;28;20109;-82
2021/05/16 05:06:52;;;;;;;6.32;3.60;;;16.40;68.50;;;;;;6307838;28;20449;-84
2021/05/16 05:09:54;;;;;;;3.88;2.83;;;16.40;68.60;;;;;;6296316;28;20032;-83
2021/05/16 05:12:55;;;;;;;11.43;3.05;;;16.40;68.60;;;;;;6304338;28;20032;-84
2021/05/16 05:15:56;;;;;;;4.35;2.90;;;16.40;68.50;;;;;;6322751;28;20035;-83
2021/05/16 05:18:57;;;;;;;4.00;2.47;;;16.40;68.50;;;;;;6290011;28;20040;-83
2021/05/16 05:21:58;;;;;;;5.05;3.08;;;16.50;68.40;;;;;;6315004;28;20062;-84
2021/05/16 05:25:00;;;;;;;5.70;2.92;;;16.40;68.50;;;;;;6297091;28;20156;-82
2021/05/16 05:28:01;;;;;;;6.18;3.67;;;16.40;68.60;;;;;;6292132;28;20029;-82
2021/05/16 05:31:03;;;;;;;4.82;2.90;;;16.40;68.50;;;;;;6298827;28;20036;-82
2021/05/16 05:34:05;;;;;;;5.18;3.05;;;16.50;68.50;;;;;;6301756;28;20060;-82
2021/05/16 05:37:06;;;;;;;4.97;3.35;;;16.50;68.50;;;;;;6288799;28;20036;-84
2021/05/16 05:40:10;;;;;;;5.38;3.58;;;16.50;68.60;;;;;;6279751;28;20369;-84
2021/05/16 05:43:12;;;;;;;5.88;3.67;;;16.50;68.50;;;;;;6295059;28;20036;-83
2021/05/16 05:46:17;;;;;;;5.28;3.80;;;16.50;68.40;;;;;;6305827;28;20058;-82
2021/05/16 05:49:18;;;;;;;5.88;3.55;;;16.60;68.50;;;;;;6298417;28;20119;-82
2021/05/16 05:52:39;;;;;;;7.93;4.38;;;16.50;68.40;;;;;;6336403;28;20357;-83
2021/05/16 05:55:41;;;;;;;6.32;3.90;;;16.60;68.60;;;;;;6320329;28;20040;-82
2021/05/16 05:58:43;;;;;;;7.20;3.67;;;16.60;68.60;;;;;;6328608;28;20036;-83
2021/05/16 06:01:47;;;;;;;4.10;3.45;;;16.60;68.60;;;;;;6325874;28;20059;-83
2021/05/16 06:04:48;;;;;;;5.55;3.92;;;16.60;68.60;;;;;;6303386;28;20064;-82
2021/05/16 06:07:49;;;;;;;6.82;3.72;;;16.60;68.60;;;;;;6307407;28;20032;-82
2021/05/16 06:10:50;;;;;;;5.97;3.70;;;16.60;68.60;;;;;;6287021;28;20055;-83
2021/05/16 06:13:52;;;;;;;5.50;3.35;;;16.60;68.60;;;;;;6302386;28;20058;-82
2021/05/16 06:16:53;;;;;;;7.00;3.70;;;16.60;68.40;;;;;;6309252;28;20380;-83
2021/05/16 06:20:02;;;;;;;5.15;3.55;;;16.60;68.30;;;;;;6285023;28;20078;-83
2021/05/16 06:23:32;;;;;;;;;;;;;;;;;;;;;
2021/05/16 06:30:17;;;;;;;5.15;3.17;;;16.70;68.30;;;;;;6291464;28;20043;-84
2021/05/16 06:33:31;;;;;;;5.03;3.55;;;16.70;68.30;;;;;;6273444;28;20032;-82
2021/05/16 06:36:42;;;;;;;6.88;3.10;;;16.60;68.10;;;;;;6251550;28;20075;-83
2021/05/16 06:39:53;;;;;;;4.50;3.17;;;16.60;68.20;;;;;;6211449;28;20458;-84
2021/05/16 06:42:57;;;;;;;7.97;3.97;;;16.70;68.10;;;;;;6255760;28;20049;-83
2021/05/16 06:45:58;;;;;;;6.88;4.35;;;16.70;68.00;;;;;;6267548;28;20116;-83
2021/05/16 06:49:00;;;;;;;4.95;3.60;;;16.70;68.10;;;;;;6279874;28;20032;-83
2021/05/16 06:52:01;;;;;;;6.63;4.18;;;16.90;68.10;;;;;;6292736;28;20033;-82
2021/05/16 06:55:05;;;;;;;6.50;4.03;;;16.90;67.90;;;;;;6272786;28;20461;-83
2021/05/16 06:58:06;;;;;;;6.60;4.10;;;17.00;67.70;;;;;;6278690;28;20120;-83
2021/05/16 07:01:08;;;;;;;4.95;3.63;;;17.00;67.40;;;;;;6261409;28;20102;-84
2021/05/16 07:04:10;;;;;;;7.03;3.67;;;17.00;67.30;;;;;;6300434;28;20108;-83
2021/05/16 07:07:12;;;;;;;6.03;3.95;;;17.00;67.30;;;;;;6289527;28;20039;-83
2021/05/16 07:10:13;;;;;;;8.07;4.22;;;17.00;67.20;;;;;;6313941;28;20043;-83
2021/05/16 07:13:15;;;;;;;6.22;3.78;;;17.00;67.20;;;;;;6260775;28;20099;-83
2021/05/16 07:16:16;;;;;;;6.75;4.43;;;17.10;67.30;;;;;;6272632;28;20037;-83
2021/05/16 07:19:17;;;;;;;6.25;3.78;;;17.10;67.10;;;;;;6290989;28;20039;-84
2021/05/16 07:22:19;;;;;;;7.22;4.10;;;17.10;66.90;;;;;;6295838;28;20086;-85
2021/05/16 07:25:20;;;;;;;9.00;4.50;;;17.20;66.80;;;;;;6304807;28;20037;-84
2021/05/16 07:28:21;;;;;;;5.97;3.50;;;17.20;66.70;;;;;;6266956;28;20461;-84
2021/05/16 07:31:23;;;;;;;7.53;3.72;;;17.20;66.60;;;;;;6268838;28;20036;-83
2021/05/16 07:34:24;;;;;;;5.20;3.47;;;17.20;66.60;;;;;;6274501;28;20033;-83
2021/05/16 07:37:25;;;;;;;7.13;3.95;;;17.20;66.60;;;;;;6269484;28;20093;-84
2021/05/16 07:40:32;;;;;;;5.05;3.42;;;17.20;66.60;;;;;;6304785;28;20373;-83
2021/05/16 07:43:33;;;;;;;5.90;3.45;;;17.30;66.60;;;;;;6290035;28;20090;-83
2021/05/16 07:46:35;;;;;;;8.13;4.75;;;17.30;66.40;;;;;;6301151;28;20051;-83
2021/05/16 07:49:36;;;;;;;7.93;4.32;;;17.40;66.50;;;;;;6299958;28;20047;-82
2021/05/16 07:52:41;;;;;;;7.53;4.18;;;17.40;66.40;;;;;;6302629;28;20029;-83
2021/05/16 07:55:42;;;;;;;6.40;3.78;;;17.60;66.30;;;;;;6316604;28;20055;-83
2021/05/16 07:58:43;;;;;;;7.78;4.53;;;17.70;65.90;;;;;;6290056;28;20056;-82
2021/05/16 08:01:44;;;;;;;8.85;4.70;;;17.80;65.50;;;;;;6274716;28;20041;-83
2021/05/16 08:04:45;;;;;;;6.03;3.97;;;17.90;65.20;;;;;;6286314;28;20060;-84
2021/05/16 08:07:46;;;;;;;6.47;3.95;;;17.90;65.20;;;;;;6286078;28;20041;-83
2021/05/16 08:10:48;;;;;;;10.23;4.03;;;18.00;65.20;;;;;;6293419;28;20099;-84
2021/05/16 08:13:51;;;;;;;6.20;3.70;;;18.10;64.80;;;;;;6290603;28;20049;-83
2021/05/16 08:16:52;;;;;;;4.72;3.55;;;18.10;64.70;;;;;;6290750;28;20087;-83
2021/05/16 08:19:53;;;;;;;9.38;4.13;;;18.20;64.60;;;;;;6295008;28;20033;-83
2021/05/16 08:22:55;;;;;;;5.70;3.97;;;18.20;64.40;;;;;;6274470;28;20060;-83
2021/05/16 08:30:19;;;;;;;7.63;3.13;;;18.50;64.40;;;;;;6318766;28;20222;-84
2021/05/16 08:33:20;;;;;;;6.22;3.15;;;18.80;64.00;;;;;;6296765;28;20036;-83
2021/05/16 08:36:22;;;;;;;5.53;3.08;;;18.80;63.60;;;;;;6291410;28;20086;-83
2021/05/16 08:39:26;;;;;;;4.03;2.72;;;18.90;63.40;;;;;;6304421;28;20040;-83
2021/05/16 08:42:29;;;;;;;5.00;2.60;;;19.00;63.30;;;;;;6323927;28;20372;-83
2021/05/16 08:45:31;;;;;;;3.97;2.20;;;19.10;63.40;;;;;;6328516;28;20044;-83
2021/05/16 08:48:32;;;;;;;5.10;2.50;;;19.30;63.00;;;;;;6310692;28;20393;-83
2021/05/16 08:51:34;;;;;;;2.58;1.85;;;19.60;62.70;;;;;;6297220;28;20056;-83
2021/05/16 08:54:37;;;;;;;2.45;1.48;;;19.90;62.10;;;;;;6304180;28;20070;-82
2021/05/16 08:57:39;;;;;;;5.20;1.30;;;20.10;60.80;;;;;;6292451;28;20101;-84
2021/05/16 09:00:46;;;;;;;1.67;1.30;;;20.30;60.00;;;;;;6308702;28;20044;-83
2021/05/16 09:03:50;;;;;;;3.42;1.75;;;20.40;59.20;;;;;;6309929;28;20051;-84
2021/05/16 09:06:54;;;;;;;1.67;1.20;;;20.50;58.80;;;;;;6299308;28;20036;-84
2021/05/16 09:09:58;;;;;;;7.95;2.75;;;20.60;58.20;;;;;;6340067;28;20032;-83
2021/05/16 09:13:17;;;;;;;4.90;1.63;;;20.70;58.40;;;;;;6298580;28;20131;-84
2021/05/16 09:16:23;;;;;;;2.28;1.58;;;20.90;58.10;;;;;;6325184;28;20091;-83
2021/05/16 09:19:42;;;;;;;6.50;3.33;;;21.20;57.50;;;;;;6295554;28;20036;-84
2021/05/16 09:22:47;;;;;;;5.93;2.28;;;21.50;57.20;;;;;;6265026;28;20127;-84
2021/05/16 09:25:48;;;;;;;11.45;4.18;;;21.70;56.70;;;;;;6311291;28;20039;-84
2021/05/16 09:29:19;;;;;;;4.25;2.63;;;22.00;56.20;;;;;;6285509;28;20036;-84
2021/05/16 09:32:27;;;;;;;20.75;9.90;;;22.10;55.70;;;;;;6251334;28;20040;-84
2021/05/16 09:35:40;;;;;;;3.63;2.08;;;22.30;55.20;;;;;;6255010;28;20519;-84
2021/05/16 09:39:05;;;;;;;26.80;12.38;;;22.40;54.50;;;;;;6259215;28;20425;-84
2021/05/16 09:42:14;;;;;;;18.55;8.75;;;22.50;54.40;;;;;;6306081;28;20044;-84
2021/05/16 09:45:18;;;;;;;2.47;1.42;;;22.60;54.20;;;;;;6305656;28;20046;-83
2021/05/16 09:48:29;;;;;;;1.52;1.00;;;22.60;54.00;;;;;;6277213;28;20376;-83
2021/05/16 09:52:15;;;;;;;11.38;4.97;;;22.50;53.20;;;;;;6256886;28;20036;-83
2021/05/16 09:55:30;;;;;;;17.10;7.80;;;22.40;53.50;;;;;;6248191;28;20040;-83
2021/05/16 09:58:43;;;;;;;5.30;3.30;;;22.40;53.40;;;;;;6236549;28;20043;-83
2021/05/16 10:01:50;;;;;;;3.67;1.88;;;22.30;53.40;;;;;;6296243;28;20040;-83
2021/05/16 10:04:57;;;;;;;12.20;5.57;;;22.40;53.60;;;;;;6270323;28;20044;-84
2021/05/16 10:07:58;;;;;;;8.10;3.90;;;22.40;53.20;;;;;;6271815;28;20094;-82
2021/05/16 10:11:19;;;;;;;12.30;6.47;;;22.30;52.70;;;;;;6284589;28;20110;-85
2021/05/16 10:14:25;;;;;;;18.02;9.13;;;22.50;53.20;;;;;;6256038;28;20361;-82
2021/05/16 10:17:36;;;;;;;4.78;2.67;;;22.50;52.80;;;;;;6296912;28;20033;-83
2021/05/16 10:20:41;;;;;;;2.90;1.92;;;22.60;52.40;;;;;;6286307;28;20045;-84
2021/05/16 10:23:50;;;;;;;9.85;4.90;;;22.70;52.10;;;;;;6296323;28;20029;-83
2021/05/16 10:27:27;;;;;;;7.22;3.58;;;22.90;51.90;;;;;;6248687;28;20033;-83
2021/05/16 10:30:28;;;;;;;3.17;1.50;;;23.00;51.70;;;;;;6281413;28;20048;-83
2021/05/16 10:33:31;;;;;;;4.50;2.53;;;23.00;51.20;;;;;;6269609;28;20416;-82
2021/05/16 10:36:44;;;;;;;7.63;2.15;;;23.10;50.60;;;;;;6283610;28;20040;-83
2021/05/16 10:39:45;;;;;;;1.33;0.77;;;23.00;50.80;;;;;;6297360;28;20032;-82
2021/05/16 10:42:50;;;;;;;1.27;0.50;;;23.10;50.90;;;;;;6280725;28;20028;-83
2021/05/16 10:45:55;;;;;;;3.00;1.45;;;23.20;50.80;;;;;;6296356;28;20089;-83
2021/05/16 10:49:24;;;;;;;8.40;4.22;;;23.20;50.60;;;;;;6268327;28;20037;-83
2021/05/16 10:52:29;;;;;;;2.50;1.27;;;23.30;50.50;;;;;;6289007;28;20045;-83
2021/05/16 10:55:44;;;;;;;14.55;5.38;;;23.40;50.10;;;;;;6305561;28;20484;-84
2021/05/16 10:58:48;;;;;;;3.25;1.70;;;23.50;50.00;;;;;;6295094;28;20051;-84
2021/05/16 11:01:49;;;;;;;3.13;1.40;;;23.50;49.80;;;;;;6312895;28;20040;-84
2021/05/16 11:04:55;;;;;;;7.85;0.80;;;23.60;49.80;;;;;;6311625;28;20040;-84
2021/05/16 11:08:52;;;;;;;2.08;1.50;;;23.70;49.50;;;;;;6284256;28;20032;-84
2021/05/16 11:11:56;;;;;;;2.15;0.70;;;23.80;49.20;;;;;;6142137;28;20036;-83
2021/05/16 11:14:58;;;;;;;1.13;0.52;;;24.00;48.60;;;;;;6158855;28;20188;-84
2021/05/16 11:17:59;;;;;;;1.05;0.65;;;24.00;48.50;;;;;;6149519;28;20097;-84
2021/05/16 11:21:06;;;;;;;1.88;0.50;;;24.10;48.30;;;;;;6158375;28;20488;-83
2021/05/16 11:24:08;;;;;;;0.57;0.32;;;24.20;47.60;;;;;;6155215;28;20051;-83
2021/05/16 11:27:22;;;;;;;0.77;0.40;;;24.20;46.60;;;;;;6155402;28;20109;-83
2021/05/16 11:30:29;;;;;;;0.20;0.20;;;24.10;46.10;;;;;;6154603;28;20043;-84
2021/05/16 11:33:32;;;;;;;0.43;0.30;;;24.00;46.20;;;;;;6172385;28;20049;-82
2021/05/16 11:36:39;;;;;;;0.75;0.30;;;23.80;45.90;;;;;;6159284;28;20076;-83
2021/05/16 11:39:45;;;;;;;0.47;0.20;;;23.70;46.30;;;;;;6136441;28;20621;-83
2021/05/16 11:42:47;;;;;;;0.32;0.30;;;23.40;45.90;;;;;;6147708;28;20039;-83
2021/05/16 11:45:48;;;;;;;0.30;0.30;;;23.50;46.40;;;;;;6138708;28;20054;-83
2021/05/16 11:48:51;;;;;;;2.40;0.90;;;23.40;46.00;;;;;;6191367;28;20335;-83
2021/05/16 11:51:59;;;;;;;0.32;0.30;;;23.40;46.70;;;;;;6264606;28;20036;-83
2021/05/16 11:55:14;;;;;;;1.45;0.30;;;23.30;46.80;;;;;;6267012;28;20045;-83
2021/05/16 11:58:15;;;;;;;0.82;0.30;;;23.40;47.20;;;;;;6286241;28;20043;-83
2021/05/16 12:01:17;;;;;;;2.20;0.43;;;23.10;47.40;;;;;;6289091;28;20033;-82
2021/05/16 12:04:39;;;;;;;0.32;0.32;;;23.10;47.50;;;;;;6275369;28;20132;-83
2021/05/16 12:07:41;;;;;;;1.55;0.88;;;23.20;47.90;;;;;;6227211;28;20040;-84
2021/05/16 12:10:46;;;;;;;43.50;20.98;;;23.20;48.10;;;;;;6242492;28;20084;-83
2021/05/16 12:13:48;;;;;;;16.35;7.65;;;23.30;48.10;;;;;;6242248;28;20048;-84
2021/05/16 12:17:04;;;;;;;1.92;1.20;;;23.20;48.30;;;;;;6254900;28;20049;-84
2021/05/16 12:20:09;;;;;;;1.48;0.70;;;23.20;48.60;;;;;;6227942;28;20043;-83
2021/05/16 12:23:11;;;;;;;3.55;0.70;;;23.10;48.60;;;;;;6259547;28;20131;-84
2021/05/16 12:26:12;;;;;;;2.22;0.25;;;23.10;48.80;;;;;;6284760;28;20030;-83
2021/05/16 12:29:15;;;;;;;1.85;0.45;;;23.00;48.90;;;;;;6266556;28;20052;-83
2021/05/16 12:32:22;;;;;;;0.43;0.35;;;23.00;49.10;;;;;;6294330;28;20040;-83
2021/05/16 12:35:23;;;;;;;2.95;0.40;;;23.00;49.00;;;;;;6317362;28;20047;-83
2021/05/16 12:38:26;;;;;;;0.30;0.22;;;23.00;48.90;;;;;;6276909;28;20032;-83
2021/05/16 12:41:28;;;;;;;0.65;0.45;;;23.10;48.60;;;;;;6301243;28;20029;-83
2021/05/16 12:44:30;;;;;;;0.28;0.20;;;23.30;48.50;;;;;;6302445;28;20048;-83
2021/05/16 12:47:31;;;;;;;0.22;0.22;;;23.60;48.00;;;;;;6282827;28;20039;-83
2021/05/16 12:50:50;;;;;;;2.38;0.50;;;23.90;47.40;;;;;;6288920;28;20040;-85
2021/05/16 12:53:51;;;;;;;;;;;24.30;47.00;;;;;;6310736;28;20491;-83
2021/05/16 12:56:55;;;;;;;0.55;0.50;;;24.60;46.00;;;;;;6309588;27;19912;-83
2021/05/16 12:59:59;;;;;;;0.50;0.38;;;24.60;45.60;;;;;;6298408;28;20078;-84
2021/05/16 13:03:07;;;;;;;1.67;0.40;;;24.50;45.60;;;;;;6283738;28;20537;-84
2021/05/16 13:06:14;;;;;;;1.35;0.80;;;24.40;45.80;;;;;;6300292;28;20493;-84
2021/05/16 13:09:28;;;;;;;0.30;0.20;;;24.30;46.00;;;;;;6300218;28;20039;-83
2021/05/16 13:12:30;;;;;;;0.65;0.10;;;24.30;46.00;;;;;;6291555;28;20268;-84
2021/05/16 13:15:35;;;;;;;1.77;0.90;;;24.20;45.90;;;;;;6279699;28;20030;-83
2021/05/16 13:18:53;;;;;;;1.33;1.00;;;24.10;46.00;;;;;;6259250;28;20029;-84
2021/05/16 13:21:54;;;;;;;0.68;0.35;;;24.30;46.00;;;;;;6300018;28;20025;-84
2021/05/16 13:24:56;;;;;;;0.60;0.30;;;24.50;45.50;;;;;;6316543;28;20100;-83
2021/05/16 13:27:59;;;;;;;0.17;0.15;;;24.70;45.30;;;;;;6295366;28;20032;-83
2021/05/16 13:31:02;;;;;;;0.60;0.45;;;24.90;44.30;;;;;;6300534;28;20050;-84
2021/05/16 13:34:04;;;;;;;0.22;0.22;;;25.00;44.00;;;;;;6280447;28;20036;-83
2021/05/16 13:37:07;;;;;;;2.45;0.98;;;25.50;43.30;;;;;;6290379;28;20102;-83
2021/05/16 13:40:11;;;;;;;0.35;0.30;;;25.80;42.90;;;;;;6286352;28;20119;-83
2021/05/16 13:43:14;;;;;;;0.35;0.20;;;26.10;42.50;;;;;;6287590;28;20076;-82
2021/05/16 13:46:17;;;;;;;0.80;0.55;;;26.10;42.30;;;;;;6268705;28;20323;-83
2021/05/16 13:49:26;;;;;;;0.57;0.32;;;26.20;42.00;;;;;;6282674;28;20418;-83
2021/05/16 13:52:28;;;;;;;4.40;0.70;;;26.30;41.80;;;;;;6284582;28;20033;-84
2021/05/16 13:55:31;;;;;;;0.63;0.47;;;26.30;42.00;;;;;;6279761;28;20037;-83
2021/05/16 13:58:32;;;;;;;0.20;0.20;;;26.30;42.00;;;;;;6274711;28;20029;-83
2021/05/16 14:01:39;;;;;;;1.13;0.17;;;26.20;42.00;;;;;;6253451;28;20048;-83
2021/05/16 14:04:40;;;;;;;0.22;0.22;;;26.20;42.20;;;;;;6295341;28;20037;-83
2021/05/16 14:07:41;;;;;;;0.25;0.20;;;26.20;42.20;;;;;;6288860;28;20132;-84
2021/05/16 14:10:42;;;;;;;1.05;0.30;;;26.20;42.10;;;;;;6274444;28;20053;-83
2021/05/16 14:13:44;;;;;;;0.52;0.30;;;26.10;42.10;;;;;;6258250;28;20340;-83
2021/05/16 14:16:47;;;;;;;1.45;0.40;;;26.00;42.10;;;;;;6282750;28;20029;-84
2021/05/16 14:19:48;;;;;;;1.83;0.73;;;25.90;42.30;;;;;;6258914;28;20449;-83
2021/05/16 14:22:49;;;;;;;5.00;2.90;;;25.70;42.20;;;;;;6256788;28;20049;-83
2021/05/16 14:25:50;;;;;;;0.55;0.40;;;25.60;42.40;;;;;;6271758;28;20190;-83
2021/05/16 14:28:52;;;;;;;3.25;1.20;;;25.50;42.60;;;;;;6313700;28;20514;-84
2021/05/16 14:31:54;;;;;;;4.95;0.90;;;25.40;42.90;;;;;;6277178;28;20036;-83
2021/05/16 14:34:55;;;;;;;0.85;0.30;;;25.40;43.00;;;;;;6283513;28;20032;-83
2021/05/16 14:37:56;;;;;;;0.75;0.43;;;25.30;43.00;;;;;;6306883;28;20044;-83
2021/05/16 14:40:57;;;;;;;0.30;0.30;;;25.30;42.90;;;;;;6277475;28;20037;-85
2021/05/16 14:43:59;;;;;;;0.45;0.43;;;25.10;42.90;;;;;;6291581;28;20072;-84
2021/05/16 14:47:02;;;;;;;1.50;0.38;;;24.90;42.30;;;;;;6298916;28;20028;-84
2021/05/16 14:50:05;;;;;;;1.38;0.25;;;24.80;42.00;;;;;;6292792;28;20036;-84
2021/05/16 14:53:07;;;;;;;0.70;0.40;;;24.60;42.40;;;;;;6261837;28;20041;-83
2021/05/16 14:56:09;;;;;;;0.80;0.10;;;24.40;42.90;;;;;;6274251;28;20052;-84
2021/05/16 14:59:10;;;;;;;0.38;0.30;;;24.20;43.30;;;;;;6289432;28;20060;-84
2021/05/16 15:02:11;;;;;;;1.95;0.22;;;24.10;44.40;;;;;;6256097;28;20468;-83
2021/05/16 15:05:12;;;;;;;0.40;0.25;;;24.00;44.00;;;;;;6271486;28;20042;-83
2021/05/16 15:08:16;;;;;;;0.65;0.30;;;23.80;44.10;;;;;;6287042;28;20310;-83
2021/05/16 15:11:18;;;;;;;1.58;0.40;;;23.80;44.30;;;;;;6283834;28;20173;-83
2021/05/16 15:14:19;;;;;;;1.65;0.38;;;23.80;44.50;;;;;;6265576;28;20033;-84
2021/05/16 15:17:23;;;;;;;0.77;0.30;;;23.70;44.70;;;;;;6277380;28;20097;-84
2021/05/16 15:20:24;;;;;;;0.30;0.22;;;23.60;44.80;;;;;;6280804;28;20079;-83
2021/05/16 15:23:25;;;;;;;0.52;0.40;;;23.60;44.80;;;;;;6257460;28;20045;-84
2021/05/16 15:26:28;;;;;;;1.00;0.30;;;23.60;44.80;;;;;;6272311;28;20033;-83
2021/05/16 15:29:29;;;;;;;1.10;0.28;;;23.70;44.90;;;;;;6288269;28;20377;-83
2021/05/16 15:32:30;;;;;;;0.43;0.30;;;23.70;44.80;;;;;;6289830;28;20086;-83
2021/05/16 15:35:31;;;;;;;1.98;0.57;;;23.80;44.60;;;;;;6290014;28;20029;-83
2021/05/16 15:38:33;;;;;;;0.70;0.30;;;23.90;43.80;;;;;;6267842;28;20045;-83
2021/05/16 15:41:35;;;;;;;0.40;0.40;;;23.90;43.40;;;;;;6281072;28;20086;-82
2021/05/16 15:44:36;;;;;;;0.98;0.50;;;24.00;42.80;;;;;;6274939;28;20051;-84
2021/05/16 15:47:38;;;;;;;0.60;0.45;;;24.00;42.10;;;;;;6274300;28;20037;-85
2021/05/16 15:50:39;;;;;;;0.30;0.30;;;24.10;41.60;;;;;;6242584;28;20045;-84
2021/05/16 15:53:40;;;;;;;1.08;0.60;;;24.20;40.90;;;;;;6258407;28;20037;-85
2021/05/16 15:56:42;;;;;;;0.70;0.50;;;24.30;40.50;;;;;;6263919;28;20049;-83
2021/05/16 15:59:44;;;;;;;2.80;0.63;;;24.40;39.90;;;;;;6296113;28;20029;-83
2021/05/16 16:02:45;;;;;;;1.02;0.60;;;24.40;39.60;;;;;;6283178;28;20040;-83
2021/05/16 16:05:46;;;;;;;0.28;0.25;;;24.30;39.00;;;;;;6280066;28;20033;-84
2021/05/16 16:08:47;;;;;;;1.38;0.57;;;24.30;39.40;;;;;;6247745;28;20520;-84